createdAt,value
2023-03-17T00:00:52.644Z,67.78
2023-03-17T00:01:52.003Z,67.98
2023-03-17T00:02:51.292Z,67.98
2023-03-17T00:03:51.683Z,68.08
2023-03-17T00:04:51.893Z,67.88
2023-03-17T00:05:51.170Z,67.68
2023-03-17T00:06:52.414Z,67.88
2023-03-17T00:07:51.814Z,68.19
2023-03-17T00:08:51.075Z,68.53
2023-03-17T00:09:51.403Z,68.53
2023-03-17T00:10:51.801Z,68.53
2023-03-17T00:11:51.017Z,68.74
2023-03-17T00:12:51.334Z,68.94
2023-03-17T00:13:51.630Z,68.84
2023-03-17T00:14:50.888Z,68.84
2023-03-17T00:15:52.174Z,68.94
2023-03-17T00:16:51.673Z,69.15
2023-03-17T00:17:50.806Z,68.94
2023-03-17T00:18:52.055Z,69.15
2023-03-17T00:19:51.429Z,69.18
2023-03-17T00:20:51.723Z,69.04
2023-03-17T00:21:51.131Z,69.18
2023-03-17T00:22:51.315Z,68.63
2023-03-17T00:23:51.646Z,68.74
2023-03-17T00:24:51.868Z,69.04
2023-03-17T00:25:52.173Z,68.74
2023-03-17T00:26:52.505Z,68.74
2023-03-17T00:27:51.911Z,68.84
2023-03-17T00:28:52.068Z,68.53
2023-03-17T00:29:51.418Z,68.63
2023-03-17T00:30:51.724Z,68.63
2023-03-17T00:31:51.028Z,68.74
2023-03-17T00:32:51.353Z,68.94
2023-03-17T00:33:50.898Z,68.74
2023-03-17T00:34:51.811Z,68.63
2023-03-17T00:35:51.182Z,68.74
2023-03-17T00:36:52.422Z,68.74
2023-03-17T00:37:51.688Z,68.94
2023-03-17T00:38:51.085Z,68.98
2023-03-17T00:39:51.390Z,68.53
2023-03-17T00:40:51.562Z,68.84
2023-03-17T00:41:52.018Z,68.94
2023-03-17T00:42:51.230Z,68.98
2023-03-17T00:43:50.565Z,69.18
2023-03-17T00:44:50.580Z,69.18
2023-03-17T00:45:51.810Z,68.98
2023-03-17T00:46:51.165Z,69.18
2023-03-17T00:47:51.400Z,69.18
2023-03-17T00:48:50.649Z,69.59
2023-03-17T00:49:50.919Z,69.59
2023-03-17T00:50:51.188Z,69.59
2023-03-17T00:51:50.444Z,69.59
2023-03-17T00:52:50.693Z,69.28
2023-03-17T00:53:51.007Z,69.38
2023-03-17T00:54:51.309Z,68.98
2023-03-17T00:55:51.521Z,69.38
2023-03-17T00:56:50.889Z,69.38
2023-03-17T00:57:51.166Z,69.49
2023-03-17T00:58:50.441Z,69.59
2023-03-17T00:59:50.803Z,69.49
2023-03-17T01:00:51.074Z,69.59
2023-03-17T01:01:50.355Z,69.59
2023-03-17T01:02:51.561Z,69.79
2023-03-17T01:03:50.904Z,69.90
2023-03-17T01:04:59.758Z,69.70
2023-03-17T01:05:51.529Z,69.49
2023-03-17T01:06:51.723Z,69.83
2023-03-17T01:07:51.079Z,69.93
2023-03-17T01:08:50.373Z,69.93
2023-03-17T01:09:50.646Z,69.83
2023-03-17T01:10:51.916Z,69.52
2023-03-17T01:11:50.314Z,69.49
2023-03-17T01:12:51.545Z,69.79
2023-03-17T01:13:50.930Z,69.93
2023-03-17T01:14:50.183Z,69.93
2023-03-17T01:15:50.537Z,69.93
2023-03-17T01:16:50.960Z,70.24
2023-03-17T01:17:51.097Z,70.45
2023-03-17T01:18:50.471Z,70.45
2023-03-17T01:19:51.703Z,70.65
2023-03-17T01:20:50.029Z,70.65
2023-03-17T01:21:50.359Z,70.86
2023-03-17T01:22:50.688Z,70.96
2023-03-17T01:23:49.936Z,71.20
2023-03-17T01:24:51.212Z,71.30
2023-03-17T01:25:50.559Z,71.51
2023-03-17T01:26:51.834Z,71.41
2023-03-17T01:27:50.149Z,71.41
2023-03-17T01:28:50.521Z,71.61
2023-03-17T01:29:50.786Z,71.82
2023-03-17T01:30:50.999Z,71.92
2023-03-17T01:31:50.361Z,72.03
2023-03-17T01:32:50.731Z,72.13
2023-03-17T01:33:50.893Z,72.37
2023-03-17T01:34:50.625Z,72.47
2023-03-17T01:35:51.545Z,72.67
2023-03-17T01:36:50.790Z,72.78
2023-03-17T01:37:51.085Z,72.88
2023-03-17T01:38:50.434Z,72.88
2023-03-17T01:39:49.717Z,72.99
2023-03-17T01:40:50.057Z,72.99
2023-03-17T01:41:50.395Z,73.12
2023-03-17T01:42:50.699Z,73.12
2023-03-17T01:43:49.987Z,73.12
2023-03-17T01:44:50.316Z,73.12
2023-03-17T01:45:50.676Z,73.02
2023-03-17T01:46:49.949Z,73.12
2023-03-17T01:47:50.274Z,73.12
2023-03-17T01:48:51.549Z,73.33
2023-03-17T01:49:50.854Z,73.33
2023-03-17T01:50:50.225Z,73.43
2023-03-17T01:51:50.561Z,73.54
2023-03-17T01:52:49.856Z,73.54
2023-03-17T01:53:50.186Z,73.54
2023-03-17T01:54:49.483Z,73.54
2023-03-17T01:55:50.860Z,73.64
2023-03-17T01:56:50.137Z,73.74
2023-03-17T01:57:50.468Z,73.74
2023-03-17T01:58:49.785Z,73.85
2023-03-17T01:59:50.096Z,74.05
2023-03-17T02:00:50.517Z,74.19
2023-03-17T02:01:49.670Z,74.29
2023-03-17T02:02:50.932Z,74.40
2023-03-17T02:03:50.353Z,74.50
2023-03-17T02:04:50.541Z,74.50
2023-03-17T02:05:49.915Z,74.50
2023-03-17T02:06:57.876Z,74.50
2023-03-17T02:07:50.516Z,74.50
2023-03-17T02:08:49.862Z,74.60
2023-03-17T02:09:50.162Z,74.60
2023-03-17T02:10:49.438Z,74.81
2023-03-17T02:11:49.779Z,74.81
2023-03-17T02:12:50.093Z,74.84
2023-03-17T02:13:49.363Z,74.91
2023-03-17T02:14:50.628Z,75.05
2023-03-17T02:15:50.978Z,75.15
2023-03-17T02:16:50.260Z,75.05
2023-03-17T02:17:49.661Z,75.05
2023-03-17T02:18:50.847Z,75.15
2023-03-17T02:19:49.188Z,75.15
2023-03-17T02:20:49.498Z,75.05
2023-03-17T02:21:49.839Z,75.05
2023-03-17T02:22:51.100Z,75.05
2023-03-17T02:23:49.428Z,75.15
2023-03-17T02:24:50.699Z,75.15
2023-03-17T02:25:51.004Z,75.15
2023-03-17T02:26:49.320Z,75.15
2023-03-17T02:27:49.658Z,75.05
2023-03-17T02:28:49.950Z,74.95
2023-03-17T02:29:49.242Z,75.15
2023-03-17T02:30:49.613Z,75.26
2023-03-17T02:31:49.875Z,75.57
2023-03-17T02:32:50.154Z,75.60
2023-03-17T02:33:49.561Z,75.49
2023-03-17T02:34:49.779Z,75.49
2023-03-17T02:35:49.097Z,75.60
2023-03-17T02:36:50.374Z,75.70
2023-03-17T02:37:49.690Z,75.70
2023-03-17T02:38:49.894Z,75.70
2023-03-17T02:39:50.331Z,75.60
2023-03-17T02:40:49.593Z,75.70
2023-03-17T02:41:49.930Z,75.60
2023-03-17T02:42:49.205Z,75.49
2023-03-17T02:43:50.457Z,75.49
2023-03-17T02:44:49.864Z,75.70
2023-03-17T02:45:50.092Z,75.60
2023-03-17T02:46:49.440Z,75.81
2023-03-17T02:47:49.773Z,75.60
2023-03-17T02:48:49.973Z,75.49
2023-03-17T02:49:50.305Z,75.60
2023-03-17T02:50:50.667Z,75.60
2023-03-17T02:51:49.880Z,75.91
2023-03-17T02:52:50.213Z,75.81
2023-03-17T02:53:49.604Z,75.91
2023-03-17T02:54:49.845Z,75.70
2023-03-17T02:55:48.787Z,75.70
2023-03-17T02:56:49.182Z,75.60
2023-03-17T02:57:49.453Z,75.60
2023-03-17T02:58:49.710Z,75.39
2023-03-17T02:59:49.106Z,75.29
2023-03-17T03:00:50.359Z,75.39
2023-03-17T03:01:48.818Z,75.19
2023-03-17T03:02:50.252Z,75.29
2023-03-17T03:03:50.309Z,75.19
2023-03-17T03:04:48.684Z,75.29
2023-03-17T03:05:49.960Z,75.29
2023-03-17T03:06:49.377Z,75.19
2023-03-17T03:07:48.652Z,75.29
2023-03-17T03:08:50.000Z,75.39
2023-03-17T03:09:50.293Z,75.19
2023-03-17T03:10:49.571Z,75.19
2023-03-17T03:11:48.967Z,75.19
2023-03-17T03:12:49.296Z,75.09
2023-03-17T03:13:49.546Z,75.09
2023-03-17T03:14:49.034Z,75.29
2023-03-17T03:15:50.337Z,75.39
2023-03-17T03:16:49.545Z,75.39
2023-03-17T03:17:48.923Z,75.39
2023-03-17T03:18:49.270Z,75.39
2023-03-17T03:19:49.491Z,75.60
2023-03-17T03:20:49.893Z,75.70
2023-03-17T03:21:50.156Z,75.70
2023-03-17T03:22:49.481Z,75.70
2023-03-17T03:23:49.805Z,75.74
2023-03-17T03:24:50.143Z,75.84
2023-03-17T03:25:49.424Z,76.05
2023-03-17T03:26:49.786Z,76.15
2023-03-17T03:27:49.154Z,76.26
2023-03-17T03:28:49.378Z,76.36
2023-03-17T03:29:49.743Z,76.46
2023-03-17T03:30:50.058Z,76.56
2023-03-17T03:31:49.333Z,76.50
2023-03-17T03:32:49.753Z,76.70
2023-03-17T03:33:49.048Z,76.77
2023-03-17T03:34:49.205Z,76.67
2023-03-17T03:35:49.651Z,76.60
2023-03-17T03:36:48.984Z,76.60
2023-03-17T03:37:49.240Z,76.70
2023-03-17T03:38:49.607Z,76.91
2023-03-17T03:39:48.964Z,76.91
2023-03-17T03:40:49.310Z,77.01
2023-03-17T03:41:49.518Z,77.01
2023-03-17T03:42:48.895Z,77.22
2023-03-17T03:43:48.192Z,77.43
2023-03-17T03:44:48.604Z,77.47
2023-03-17T03:45:49.683Z,77.43
2023-03-17T03:46:48.190Z,77.43
2023-03-17T03:47:49.372Z,77.33
2023-03-17T03:48:49.702Z,77.33
2023-03-17T03:49:48.988Z,77.12
2023-03-17T03:50:48.372Z,77.12
2023-03-17T03:51:49.621Z,77.22
2023-03-17T03:52:47.968Z,77.12
2023-03-17T03:53:48.328Z,77.01
2023-03-17T03:54:48.620Z,76.91
2023-03-17T03:55:47.878Z,76.91
2023-03-17T03:56:48.282Z,76.91
2023-03-17T03:57:48.523Z,76.91
2023-03-17T03:58:48.866Z,76.91
2023-03-17T03:59:48.113Z,77.01
2023-03-17T04:00:49.388Z,77.26
2023-03-17T04:01:48.935Z,77.26
2023-03-17T04:02:48.185Z,77.36
2023-03-17T04:03:48.415Z,77.36
2023-03-17T04:04:48.728Z,77.47
2023-03-17T04:05:48.027Z,77.47
2023-03-17T04:06:49.287Z,77.47
2023-03-17T04:07:48.724Z,77.47
2023-03-17T04:08:47.945Z,77.56
2023-03-17T04:09:48.271Z,77.56
2023-03-17T04:10:48.590Z,77.56
2023-03-17T04:11:47.899Z,77.67
2023-03-17T04:12:48.189Z,77.81
2023-03-17T04:13:49.549Z,78.02
2023-03-17T04:14:47.812Z,78.22
2023-03-17T04:15:48.196Z,78.33
2023-03-17T04:16:48.435Z,78.43
2023-03-17T04:17:48.651Z,78.33
2023-03-17T04:18:49.043Z,78.43
2023-03-17T04:19:48.396Z,78.43
2023-03-17T04:20:47.671Z,78.43
2023-03-17T04:21:47.974Z,78.43
2023-03-17T04:22:48.299Z,78.33
2023-03-17T04:23:47.585Z,78.43
2023-03-17T04:24:48.869Z,78.43
2023-03-17T04:25:49.220Z,78.53
2023-03-17T04:26:48.468Z,78.64
2023-03-17T04:27:48.805Z,78.64
2023-03-17T04:28:48.204Z,78.64
2023-03-17T04:29:47.508Z,78.64
2023-03-17T04:30:47.790Z,78.74
2023-03-17T04:31:48.224Z,78.64
2023-03-17T04:32:48.470Z,78.64
2023-03-17T04:33:47.725Z,78.74
2023-03-17T04:34:48.063Z,78.85
2023-03-17T04:35:48.477Z,78.74
2023-03-17T04:36:48.615Z,78.74
2023-03-17T04:37:48.040Z,78.64
2023-03-17T04:38:48.305Z,78.64
2023-03-17T04:39:47.616Z,78.53
2023-03-17T04:40:47.517Z,78.43
2023-03-17T04:41:47.825Z,78.43
2023-03-17T04:42:48.178Z,78.53
2023-03-17T04:43:47.458Z,78.53
2023-03-17T04:44:47.752Z,78.43
2023-03-17T04:45:49.057Z,78.33
2023-03-17T04:46:47.408Z,78.33
2023-03-17T04:47:47.671Z,78.33
2023-03-17T04:48:47.988Z,78.33
2023-03-17T04:49:48.232Z,78.33
2023-03-17T04:50:47.585Z,78.22
2023-03-17T04:51:47.871Z,78.33
2023-03-17T04:52:47.185Z,78.33
2023-03-17T04:53:47.524Z,78.22
2023-03-17T04:54:48.751Z,78.22
2023-03-17T04:55:48.150Z,78.22
2023-03-17T04:56:48.382Z,78.22
2023-03-17T04:57:47.775Z,78.22
2023-03-17T04:58:48.098Z,78.12
2023-03-17T04:59:48.355Z,78.12
2023-03-17T05:00:47.759Z,78.02
2023-03-17T05:01:48.065Z,78.02
2023-03-17T05:02:48.333Z,78.02
2023-03-17T05:03:47.696Z,78.12
2023-03-17T05:04:48.063Z,78.12
2023-03-17T05:05:47.347Z,78.22
2023-03-17T05:06:48.656Z,78.12
2023-03-17T05:07:47.968Z,78.22
2023-03-17T05:08:47.338Z,78.22
2023-03-17T05:09:48.686Z,78.22
2023-03-17T05:10:47.966Z,78.22
2023-03-17T05:11:47.352Z,78.33
2023-03-17T05:12:47.675Z,78.22
2023-03-17T05:13:46.988Z,78.33
2023-03-17T05:14:48.276Z,78.22
2023-03-17T05:15:47.710Z,78.02
2023-03-17T05:16:48.008Z,77.81
2023-03-17T05:17:47.326Z,77.81
2023-03-17T05:18:47.650Z,77.91
2023-03-17T05:19:47.925Z,77.91
2023-03-17T05:20:47.338Z,77.70
2023-03-17T05:21:47.678Z,77.81
2023-03-17T05:22:46.965Z,77.91
2023-03-17T05:23:47.317Z,78.02
2023-03-17T05:24:47.760Z,78.12
2023-03-17T05:25:46.948Z,78.22
2023-03-17T05:26:47.272Z,78.12
2023-03-17T05:27:47.657Z,78.12
2023-03-17T05:28:46.955Z,78.22
2023-03-17T05:29:47.266Z,78.33
2023-03-17T05:30:47.618Z,78.33
2023-03-17T05:31:47.778Z,78.33
2023-03-17T05:32:47.286Z,78.22
2023-03-17T05:33:48.554Z,78.22
2023-03-17T05:34:46.962Z,78.33
2023-03-17T05:35:47.210Z,78.33
2023-03-17T05:36:47.545Z,78.22
2023-03-17T05:37:46.806Z,78.33
2023-03-17T05:38:47.137Z,78.33
2023-03-17T05:39:47.544Z,78.22
2023-03-17T05:40:46.794Z,78.22
2023-03-17T05:41:47.171Z,78.33
2023-03-17T05:42:47.486Z,78.22
2023-03-17T05:43:46.935Z,78.33
2023-03-17T05:44:47.151Z,78.33
2023-03-17T05:45:48.528Z,78.53
2023-03-17T05:46:46.785Z,78.22
2023-03-17T05:47:48.075Z,78.22
2023-03-17T05:48:48.425Z,78.02
2023-03-17T05:49:46.798Z,78.08
2023-03-17T05:50:48.098Z,77.98
2023-03-17T05:51:46.529Z,77.98
2023-03-17T05:52:46.780Z,78.08
2023-03-17T05:53:47.077Z,78.08
2023-03-17T05:54:46.375Z,78.02
2023-03-17T05:55:46.719Z,78.08
2023-03-17T05:56:47.064Z,78.12
2023-03-17T05:57:46.332Z,77.98
2023-03-17T05:58:46.672Z,78.08
2023-03-17T05:59:47.022Z,78.08
2023-03-17T06:00:46.289Z,78.19
2023-03-17T06:01:46.657Z,77.98
2023-03-17T06:02:47.243Z,77.98
2023-03-17T06:03:46.363Z,77.87
2023-03-17T06:04:46.662Z,77.77
2023-03-17T06:05:47.024Z,77.87
2023-03-17T06:06:46.293Z,77.77
2023-03-17T06:07:54.060Z,77.77
2023-03-17T06:08:47.959Z,77.77
2023-03-17T06:09:46.257Z,77.77
2023-03-17T06:10:46.572Z,77.77
2023-03-17T06:11:46.906Z,77.67
2023-03-17T06:12:47.214Z,77.77
2023-03-17T06:13:46.499Z,77.77
2023-03-17T06:14:47.869Z,77.53
2023-03-17T06:15:46.125Z,77.12
2023-03-17T06:16:46.428Z,76.70
2023-03-17T06:17:46.760Z,76.67
2023-03-17T06:18:47.070Z,76.46
2023-03-17T06:19:48.967Z,76.26
2023-03-17T06:20:46.669Z,76.36
2023-03-17T06:21:47.074Z,75.81
2023-03-17T06:23:02.148Z,75.91
2023-03-17T06:23:47.777Z,75.81
2023-03-17T06:24:47.015Z,75.70
2023-03-17T06:25:46.298Z,75.49
2023-03-17T06:26:46.642Z,75.49
2023-03-17T06:27:46.984Z,75.39
2023-03-17T06:28:46.260Z,75.09
2023-03-17T06:29:46.623Z,74.95
2023-03-17T06:30:47.025Z,74.63
2023-03-17T06:31:46.253Z,74.84
2023-03-17T06:32:46.596Z,74.74
2023-03-17T06:33:46.913Z,74.95
2023-03-17T06:34:46.188Z,74.95
2023-03-17T06:35:46.564Z,74.81
2023-03-17T06:36:46.828Z,75.01
2023-03-17T06:37:46.116Z,74.71
2023-03-17T06:38:46.457Z,74.60
2023-03-17T06:39:46.811Z,74.60
2023-03-17T06:40:46.074Z,74.29
2023-03-17T06:41:46.537Z,73.57
2023-03-17T06:42:46.757Z,73.88
2023-03-17T06:43:46.021Z,73.33
2023-03-17T06:44:46.392Z,73.43
2023-03-17T06:45:46.712Z,73.12
2023-03-17T06:46:46.025Z,73.54
2023-03-17T06:47:46.299Z,73.12
2023-03-17T06:48:46.602Z,73.02
2023-03-17T06:49:45.859Z,73.33
2023-03-17T06:50:46.202Z,73.33
2023-03-17T06:51:46.482Z,73.33
2023-03-17T06:52:46.874Z,72.81
2023-03-17T06:53:46.342Z,72.99
2023-03-17T06:54:46.367Z,73.19
2023-03-17T06:55:45.647Z,73.09
2023-03-17T06:56:45.949Z,72.99
2023-03-17T06:57:46.277Z,72.67
2023-03-17T06:58:46.661Z,72.78
2023-03-17T06:59:45.862Z,73.09
2023-03-17T07:00:46.182Z,72.88
2023-03-17T07:01:46.517Z,72.75
2023-03-17T07:02:45.775Z,72.75
2023-03-17T07:03:46.099Z,72.13
2023-03-17T07:04:46.538Z,72.03
2023-03-17T07:05:45.632Z,71.82
2023-03-17T07:06:46.116Z,72.03
2023-03-17T07:07:46.291Z,72.09
2023-03-17T07:08:45.551Z,71.78
2023-03-17T07:09:45.953Z,71.58
2023-03-17T07:10:46.205Z,71.58
2023-03-17T07:11:45.377Z,71.27
2023-03-17T07:12:45.761Z,71.27
2023-03-17T07:13:46.003Z,71.37
2023-03-17T07:14:46.324Z,70.93
2023-03-17T07:15:45.667Z,71.14
2023-03-17T07:16:45.977Z,71.44
2023-03-17T07:17:46.200Z,71.24
2023-03-17T07:18:45.487Z,71.03
2023-03-17T07:19:45.775Z,70.62
2023-03-17T07:20:46.082Z,70.52
2023-03-17T07:21:46.939Z,70.93
2023-03-17T07:22:45.712Z,70.79
2023-03-17T07:23:45.973Z,70.69
2023-03-17T07:24:46.227Z,70.28
2023-03-17T07:25:45.501Z,69.97
2023-03-17T07:26:45.766Z,70.18
2023-03-17T07:27:46.077Z,70.38
2023-03-17T07:28:45.348Z,70.07
2023-03-17T07:29:45.652Z,69.15
2023-03-17T07:30:45.946Z,69.22
2023-03-17T07:31:45.665Z,70.14
2023-03-17T07:32:45.498Z,69.53
2023-03-17T07:33:45.773Z,69.53
2023-03-17T07:34:46.049Z,69.42
2023-03-17T07:35:45.332Z,68.91
2023-03-17T07:36:45.603Z,69.22
2023-03-17T07:37:45.869Z,69.53
2023-03-17T07:38:45.154Z,68.80
2023-03-17T07:39:45.957Z,69.09
2023-03-17T07:40:45.751Z,69.18
2023-03-17T07:41:45.005Z,69.70
2023-03-17T07:42:45.293Z,69.18
2023-03-17T07:43:45.586Z,69.29
2023-03-17T07:44:45.898Z,69.18
2023-03-17T07:45:45.197Z,68.46
2023-03-17T07:46:45.406Z,69.18
2023-03-17T07:47:45.720Z,69.39
2023-03-17T07:48:44.937Z,68.16
2023-03-17T07:49:45.254Z,68.23
2023-03-17T07:50:45.566Z,69.05
2023-03-17T07:51:45.844Z,68.95
2023-03-17T07:52:45.108Z,68.74
2023-03-17T07:53:45.393Z,68.43
2023-03-17T07:54:45.649Z,68.02
2023-03-17T07:55:44.899Z,68.33
2023-03-17T07:56:45.693Z,68.85
2023-03-17T07:57:45.466Z,67.92
2023-03-17T07:58:45.778Z,68.10
2023-03-17T07:59:44.959Z,68.19
2023-03-17T08:00:45.326Z,68.19
2023-03-17T08:01:45.561Z,67.79
2023-03-17T08:02:44.855Z,67.89
2023-03-17T08:03:45.144Z,67.58
2023-03-17T08:04:45.319Z,67.27
2023-03-17T08:05:45.582Z,67.17
2023-03-17T08:06:44.867Z,66.76
2023-03-17T08:07:45.143Z,67.07
2023-03-17T08:08:45.437Z,66.96
2023-03-17T08:09:44.679Z,66.83
2023-03-17T08:10:44.961Z,67.44
2023-03-17T08:11:45.208Z,66.93
2023-03-17T08:12:45.515Z,66.83
2023-03-17T08:13:44.740Z,66.73
2023-03-17T08:14:45.009Z,66.52
2023-03-17T08:15:45.272Z,67.76
2023-03-17T08:16:45.641Z,67.76
2023-03-17T08:17:44.851Z,67.44
2023-03-17T08:18:45.167Z,66.93
2023-03-17T08:19:45.376Z,66.93
2023-03-17T08:20:44.630Z,67.14
2023-03-17T08:21:44.938Z,67.24
2023-03-17T08:22:45.233Z,67.14
2023-03-17T08:23:44.482Z,67.76
2023-03-17T08:24:44.800Z,66.52
2023-03-17T08:25:45.045Z,66.73
2023-03-17T08:26:45.301Z,67.14
2023-03-17T08:27:44.518Z,67.03
2023-03-17T08:28:44.772Z,67.41
2023-03-17T08:29:45.014Z,67.52
2023-03-17T08:30:45.386Z,66.19
2023-03-17T08:31:46.562Z,65.88
2023-03-17T08:32:44.876Z,66.28
2023-03-17T08:33:45.086Z,66.08
2023-03-17T08:34:44.293Z,66.28
2023-03-17T08:35:44.686Z,66.08
2023-03-17T08:36:44.882Z,66.19
2023-03-17T08:37:45.146Z,66.16
2023-03-17T08:38:44.420Z,66.25
2023-03-17T08:39:44.661Z,66.36
2023-03-17T08:40:44.964Z,66.05
2023-03-17T08:41:44.213Z,65.61
2023-03-17T08:42:44.485Z,65.71
2023-03-17T08:43:44.764Z,65.00
2023-03-17T08:44:45.035Z,65.61
2023-03-17T08:45:44.287Z,65.58
2023-03-17T08:46:44.570Z,65.27
2023-03-17T08:47:44.811Z,64.56
2023-03-17T08:48:45.059Z,64.35
2023-03-17T08:49:44.291Z,64.65
2023-03-17T08:50:44.546Z,64.86
2023-03-17T08:51:44.922Z,64.86
2023-03-17T08:52:45.076Z,64.22
2023-03-17T08:53:44.326Z,64.22
2023-03-17T08:54:44.567Z,64.94
2023-03-17T08:55:44.825Z,64.01
2023-03-17T08:56:44.028Z,64.32
2023-03-17T08:57:44.665Z,64.09
2023-03-17T08:58:44.560Z,63.98
2023-03-17T08:59:44.822Z,64.09
2023-03-17T09:00:44.024Z,63.68
2023-03-17T09:01:44.321Z,64.18
2023-03-17T09:02:44.547Z,64.06
2023-03-17T09:03:44.781Z,63.54
2023-03-17T09:04:43.962Z,63.44
2023-03-17T09:05:44.183Z,63.44
2023-03-17T09:07:01.888Z,63.34
2023-03-17T09:07:45.676Z,63.44
2023-03-17T09:08:43.860Z,63.82
2023-03-17T09:09:44.155Z,63.72
2023-03-17T09:10:44.545Z,62.70
2023-03-17T09:11:44.578Z,62.83
2023-03-17T09:12:43.803Z,62.80
2023-03-17T09:13:44.028Z,62.70
2023-03-17T09:14:44.997Z,62.39
2023-03-17T09:15:44.556Z,63.41
2023-03-17T09:16:44.748Z,63.62
2023-03-17T09:17:43.940Z,63.00
2023-03-17T09:18:44.360Z,63.72
2023-03-17T09:19:44.468Z,62.39
2023-03-17T09:20:45.017Z,62.87
2023-03-17T09:21:43.859Z,62.98
2023-03-17T09:22:44.148Z,62.77
2023-03-17T09:23:44.368Z,62.87
2023-03-17T09:24:44.616Z,62.23
2023-03-17T09:25:43.835Z,61.82
2023-03-17T09:26:44.075Z,62.23
2023-03-17T09:27:44.336Z,62.02
2023-03-17T09:28:44.581Z,62.74
2023-03-17T09:29:43.800Z,62.71
2023-03-17T09:30:44.114Z,63.02
2023-03-17T09:31:44.299Z,61.38
2023-03-17T09:32:44.539Z,60.46
2023-03-17T09:33:43.685Z,60.97
2023-03-17T09:34:43.917Z,61.18
2023-03-17T09:35:44.180Z,60.46
2023-03-17T09:36:44.394Z,59.92
2023-03-17T09:37:44.615Z,60.44
2023-03-17T09:38:43.870Z,61.87
2023-03-17T09:39:44.148Z,60.53
2023-03-17T09:40:44.425Z,60.44
2023-03-17T09:41:43.564Z,60.13
2023-03-17T09:42:44.350Z,60.44
2023-03-17T09:43:44.041Z,60.53
2023-03-17T09:44:44.245Z,60.13
2023-03-17T09:45:43.824Z,60.64
2023-03-17T09:46:43.777Z,61.25
2023-03-17T09:47:43.963Z,61.43
2023-03-17T09:48:44.192Z,60.92
2023-03-17T09:49:43.391Z,60.71
2023-03-17T09:50:43.648Z,61.02
2023-03-17T09:51:43.942Z,60.92
2023-03-17T09:52:44.129Z,62.01
2023-03-17T09:53:43.316Z,61.50
2023-03-17T09:54:43.553Z,61.40
2023-03-17T09:55:43.804Z,61.27
2023-03-17T09:56:44.019Z,61.47
2023-03-17T09:57:44.304Z,61.27
2023-03-17T09:58:43.435Z,60.66
2023-03-17T09:59:44.627Z,61.68
2023-03-17T10:00:43.923Z,61.85
2023-03-17T10:01:44.263Z,60.93
2023-03-17T10:02:43.374Z,60.83
2023-03-17T10:03:43.649Z,60.42
2023-03-17T10:04:44.743Z,60.63
2023-03-17T10:05:45.025Z,60.63
2023-03-17T10:06:43.220Z,60.93
2023-03-17T10:07:43.415Z,61.07
2023-03-17T10:08:43.686Z,60.63
2023-03-17T10:09:43.986Z,60.12
2023-03-17T10:10:44.040Z,60.32
2023-03-17T10:11:43.290Z,60.53
2023-03-17T10:12:43.495Z,60.42
2023-03-17T10:13:43.771Z,60.22
2023-03-17T10:14:43.997Z,60.73
2023-03-17T10:15:43.270Z,60.12
2023-03-17T10:16:43.431Z,60.12
2023-03-17T10:17:43.613Z,60.70
2023-03-17T10:18:43.810Z,61.21
2023-03-17T10:19:42.981Z,60.09
2023-03-17T10:20:43.292Z,59.99
2023-03-17T10:21:43.425Z,60.30
2023-03-17T10:22:43.635Z,60.70
2023-03-17T10:23:43.904Z,60.09
2023-03-17T10:24:44.010Z,59.48
2023-03-17T10:25:43.386Z,60.47
2023-03-17T10:26:43.548Z,60.68
2023-03-17T10:27:43.702Z,60.37
2023-03-17T10:28:43.823Z,60.14
2023-03-17T10:29:43.099Z,58.81
2023-03-17T10:30:43.301Z,58.23
2023-03-17T10:31:43.592Z,59.66
2023-03-17T10:32:44.727Z,59.45
2023-03-17T10:33:42.946Z,58.61
2023-03-17T10:34:43.173Z,59.73
2023-03-17T10:35:43.370Z,59.53
2023-03-17T10:36:43.600Z,59.42
2023-03-17T10:37:43.961Z,59.01
2023-03-17T10:38:42.993Z,60.11
2023-03-17T10:39:43.170Z,59.70
2023-03-17T10:40:44.354Z,56.68
2023-03-17T10:41:44.547Z,57.67
2023-03-17T10:42:42.925Z,57.77
2023-03-17T10:43:43.072Z,56.88
2023-03-17T10:44:43.251Z,58.78
2023-03-17T10:45:45.263Z,60.11
2023-03-17T10:46:42.653Z,58.48
2023-03-17T10:47:42.815Z,59.27
2023-03-17T10:48:43.076Z,58.56
2023-03-17T10:49:43.219Z,56.34
2023-03-17T10:50:43.444Z,57.56
2023-03-17T10:51:42.612Z,58.89
2023-03-17T10:52:42.789Z,58.99
2023-03-17T10:53:42.988Z,59.27
2023-03-17T10:54:43.246Z,57.84
2023-03-17T10:55:43.385Z,57.43
2023-03-17T10:56:42.551Z,57.23
2023-03-17T10:57:43.661Z,58.02
2023-03-17T10:58:42.874Z,56.60
2023-03-17T10:59:44.377Z,58.02
2023-03-17T11:00:43.345Z,57.48
2023-03-17T11:01:42.433Z,57.38
2023-03-17T11:02:42.593Z,56.87
2023-03-17T11:03:42.882Z,57.89
2023-03-17T11:04:43.037Z,58.47
2023-03-17T11:05:43.238Z,56.65
2023-03-17T11:06:42.515Z,58.47
2023-03-17T11:07:42.606Z,55.22
2023-03-17T11:08:42.804Z,56.06
2023-03-17T11:09:43.036Z,57.38
2023-03-17T11:10:43.257Z,57.79
2023-03-17T11:11:42.409Z,57.18
2023-03-17T11:12:42.719Z,56.06
2023-03-17T11:13:42.871Z,56.57
2023-03-17T11:14:43.089Z,56.57
2023-03-17T11:15:42.309Z,56.37
2023-03-17T11:16:42.575Z,56.37
2023-03-17T11:17:42.744Z,56.77
2023-03-17T11:18:42.950Z,56.06
2023-03-17T11:19:42.164Z,55.45
2023-03-17T11:20:43.342Z,56.16
2023-03-17T11:21:42.574Z,56.47
2023-03-17T11:22:42.809Z,55.78
2023-03-17T11:23:43.104Z,56.47
2023-03-17T11:24:42.239Z,56.77
2023-03-17T11:25:42.438Z,56.16
2023-03-17T11:26:42.696Z,56.37
2023-03-17T11:27:42.876Z,56.06
2023-03-17T11:28:42.063Z,57.08
2023-03-17T11:29:42.310Z,56.26
2023-03-17T11:30:42.490Z,55.43
2023-03-17T11:31:42.760Z,55.83
2023-03-17T11:32:42.973Z,55.55
2023-03-17T11:33:42.122Z,55.45
2023-03-17T11:34:42.303Z,56.24
2023-03-17T11:35:42.557Z,57.35
2023-03-17T11:36:42.698Z,57.46
2023-03-17T11:37:42.918Z,56.34
2023-03-17T11:38:42.073Z,56.34
2023-03-17T11:39:43.311Z,55.83
2023-03-17T11:40:42.486Z,57.33
2023-03-17T11:41:42.730Z,57.12
2023-03-17T11:42:41.881Z,54.99
2023-03-17T11:43:42.090Z,55.71
2023-03-17T11:44:42.269Z,56.31
2023-03-17T11:45:42.577Z,56.31
2023-03-17T11:46:42.691Z,56.31
2023-03-17T11:47:41.956Z,56.72
2023-03-17T11:48:42.069Z,57.93
2023-03-17T11:49:42.263Z,57.43
2023-03-17T11:50:42.505Z,55.71
2023-03-17T11:51:42.760Z,56.11
2023-03-17T11:52:41.922Z,55.30
2023-03-17T11:53:42.170Z,56.01
2023-03-17T11:54:42.325Z,57.10
2023-03-17T11:55:42.497Z,56.79
2023-03-17T11:56:41.654Z,55.98
2023-03-17T11:57:41.847Z,57.03
2023-03-17T11:58:42.981Z,55.50
2023-03-17T11:59:42.336Z,56.62
2023-03-17T12:00:43.976Z,56.21
2023-03-17T12:01:42.575Z,56.41
2023-03-17T12:02:42.769Z,56.92
2023-03-17T12:03:41.995Z,56.31
2023-03-17T12:04:43.164Z,56.79
2023-03-17T12:05:42.440Z,55.98
2023-03-17T12:06:41.532Z,57.10
2023-03-17T12:07:42.659Z,56.90
2023-03-17T12:08:41.900Z,56.11
2023-03-17T12:09:42.192Z,55.80
2023-03-17T12:10:43.234Z,55.50
2023-03-17T12:11:41.523Z,56.52
2023-03-17T12:12:41.711Z,57.73
2023-03-17T12:13:41.850Z,57.33
2023-03-17T12:14:41.983Z,56.52
2023-03-17T12:15:43.193Z,56.99
2023-03-17T12:16:42.400Z,57.81
2023-03-17T12:17:41.525Z,58.72
2023-03-17T12:18:42.708Z,58.11
2023-03-17T12:19:41.929Z,57.78
2023-03-17T12:20:42.120Z,56.77
2023-03-17T12:21:42.295Z,54.84
2023-03-17T12:22:41.581Z,55.25
2023-03-17T12:23:41.678Z,55.65
2023-03-17T12:24:41.858Z,55.85
2023-03-17T12:25:43.055Z,57.37
2023-03-17T12:26:42.224Z,56.57
2023-03-17T12:27:41.469Z,56.97
2023-03-17T12:28:42.084Z,57.78
2023-03-17T12:29:42.869Z,57.15
2023-03-17T12:30:42.120Z,57.04
2023-03-17T12:31:41.223Z,57.24
2023-03-17T12:32:42.446Z,56.23
2023-03-17T12:33:41.653Z,55.35
2023-03-17T12:34:41.924Z,55.76
2023-03-17T12:35:43.008Z,55.55
2023-03-17T12:36:41.204Z,55.76
2023-03-17T12:37:42.319Z,56.77
2023-03-17T12:38:41.567Z,56.36
2023-03-17T12:39:41.765Z,55.35
2023-03-17T12:40:41.957Z,56.77
2023-03-17T12:41:41.080Z,56.36
2023-03-17T12:42:42.337Z,56.87
2023-03-17T12:43:41.471Z,56.46
2023-03-17T12:44:42.647Z,57.88
2023-03-17T12:45:42.896Z,56.57
2023-03-17T12:46:41.174Z,56.03
2023-03-17T12:47:41.268Z,55.73
2023-03-17T12:48:42.453Z,55.83
2023-03-17T12:49:41.680Z,56.34
2023-03-17T12:50:41.862Z,56.13
2023-03-17T12:51:41.006Z,55.73
2023-03-17T12:52:41.238Z,56.03